Aviation Digital Data Service (ADDS)

Output produced by METARs form (1920 UTC 23 June 2018)
found at http://aviationweather.gov/adds/metars/
 
KBUF 231720Z 2318/2418 22005KT P6SM VCSH SCT025 OVC035 
     FM232000 25006KT P6SM VCSH BKN035 
     FM240200 00000KT P6SM BKN035 
     FM240500 00000KT P6SM BKN015 
     FM240800 00000KT 4SM BR OVC007 
     FM241100 00000KT 1SM BR OVC003 
     FM241400 VRB03KT 4SM BR VCSH OVC007